Airfield :
LOGIN :

Register | Disclaimer

   EN    FR    IT 

 










Legend :    VFR   Marginal VFR   IFR   Intensive IFR   Very Intensive IFR
Visi :
Ceiling :
>= 8 km
>= 3000ft
5 to 8 km
1000 to 3000 ft
1500m to 5 km
500 to 1000 ft
800 to 1500m
200 to 500 ft
< 800m
< 200 ft
Symbols :   Thunderstorms  Fog  Heavy snow  Heavy precipitations  Wind > 20 kt
SIGMETs :     Misc.  Thunderstorms  Icing  Turbulence  Mountain Waves  Volcanic Ashes






- Airport Elevation : 84 ft


LFBC - Cazaux

CURRENT METAR :
  • 070930Z AUTO 22007KT 9999 -RA BKN029/// OVC043/// ///TCU 15/11 Q1013

EXPIRED METARs :
  • 070900Z AUTO 34004KT 310V020 9999 FEW039/// SCT050/// OVC066/// ///TCU 16/10 Q1012
  • 070830Z AUTO 27006KT 230V310 9999 FEW048 BKN058 OVC068 16/08 Q1012
  • 070800Z AUTO 30008KT 260V330 CAVOK 17/08 Q1012
  • 070730Z AUTO 27006KT 240V320 9999 FEW047 OVC066 17/08 Q1012
  • 070700Z AUTO VRB02KT CAVOK 17/10 Q1012

Expired Forecast.



MET'MAP, your aeronautical weather chart ! - Copyright ORBIFLY December 2007 - Disclaimer

ORBIFLY MET'MAP TEAM :

Programming & Development : Alexandra Zaïnal
Concept & original design : Baudouin d'Aumeries
Assistance for programming : Marc-Olivier Méhu
Technical & hardware support : Manuel Goepfert

Contact : metmap@orbifly.com




SOURCES & CREDITS :

   NOAA